OOCL Taipei — VRNR6 — position and weather

sailwx.info

Track history (hours):
 
Tides and Currents Weather Stations Pressure Air Temp Water Temp Dewpoint Dewpoint Depression Visibility Wind Speed Wind Dir Waves Ship Positions

OOCL Taipei

Last reported at 2017-Oct-12 00:36 UTC. Time now 2017-Oct-22 12:13 UTC.
Position N 22°49' E 120°02'.
Warning: this ship's position is 10 days out of date.

Length 335 m; draft 12.1 m.

Type: Cargo ship. MMSI: 477067800.

Date/timePositionNaut miles runAvg speedWind from/ knotsBaromVisibWave heightAir tempDewpointWater temp
2017-Oct-12 00:36N 22°49' E 120°02'114.9
2017-Oct-12 00:30N 22°48' E 120°03'612.8
2017-Oct-12 00:00N 22°42' E 120°05'1 3.0
2017-Oct-11 23:30N 22°41' E 120°06'3 7.0
2017-Oct-11 23:00N 22°38' E 120°08'713.1
2017-Oct-11 22:30N 22°33' E 120°12'612.6
2017-Oct-11 22:00N 22°33' E 120°19'1 0.3
2017-Oct-11 17:10N 22°34' E 120°19'0 0.0
2017-Oct-11 00:00N 22°34' E 120°19'3 5.2
2017-Oct-10 23:30N 22°32' E 120°16'2 3.5
2017-Oct-10 23:00N 22°32' E 120°15'2 4.9
2017-Oct-10 22:30N 22°32' E 120°12'714.2
2017-Oct-10 22:00N 22°30' E 120°04'1019.9
2017-Oct-10 21:30N 22°30' E 119°54'320 7.2
2017-Oct-09 01:03N 22°20' E 114°07'0 7.5
2017-Oct-09 01:00N 22°20' E 114°07'1 0.1
2017-Oct-08 14:03N 22°19' E 114°07'0 5.8
2017-Oct-08 14:00N 22°19' E 114°07'13 9.6
2017-Oct-08 12:40N 22°23' E 113°54'2 5.1
2017-Oct-08 12:19N 22°25' E 113°53'2 1.6
2017-Oct-08 11:06N 22°27' E 113°53'0 0.0
2017-Oct-08 10:57N 22°27' E 113°53'0 0.0
2017-Oct-08 07:09N 22°27' E 113°53'0 0.0
2017-Oct-07 22:57N 22°27' E 113°53'0 1.0
2017-Oct-07 22:30N 22°26' E 113°53'3 6.4
2017-Oct-07 22:00N 22°23' E 113°54'2 3.8
2017-Oct-07 21:30N 22°22' E 113°55'330 8.6
2017-Oct-06 07:03N 22°30' E 119°52'0 8.0
2017-Oct-06 07:00N 22°30' E 119°53'4 8.2
2017-Oct-06 06:30N 22°30' E 119°57'510.1
2017-Oct-06 06:00N 22°31' E 120°03'510.2
2017-Oct-06 05:30N 22°32' E 120°08'5 9.0
2017-Oct-06 05:00N 22°33' E 120°13'510.9
2017-Oct-06 04:30N 22°33' E 120°19'1 2.4
2017-Oct-06 04:00N 22°34' E 120°19'0 0.0
2017-Oct-05 19:25N 22°34' E 120°19'0 0.0
2017-Oct-05 09:49N 22°34' E 120°19'0 0.0
2017-Oct-05 09:13N 22°34' E 120°19'0 0.0
2017-Oct-05 08:55N 22°34' E 120°19'1 1.6
2017-Oct-05 08:30N 22°34' E 120°19'3 5.9
2017-Oct-05 08:00N 22°33' E 120°16'2 3.3
2017-Oct-05 07:30N 22°32' E 120°14'2 3.0
2017-Oct-05 07:00N 22°32' E 120°13'2 3.9
2017-Oct-05 06:30N 22°32' E 120°11'1 2.7
2017-Oct-05 06:00N 22°33' E 120°10'0 0.8
2017-Oct-05 05:30N 22°34' E 120°10'0 0.6
2017-Oct-05 05:00N 22°34' E 120°10'0 0.7
2017-Oct-05 04:30N 22°34' E 120°10'1 2.6
2017-Oct-05 04:00N 22°36' E 120°10'3 6.5
2017-Oct-05 03:30N 22°39' E 120°08'3 6.8
2017-Oct-05 03:00N 22°42' E 120°07'612.4
2017-Oct-05 02:30N 22°47' E 120°04'  
Track history (hours):
 
Tides and Currents Weather Stations Pressure Air Temp Water Temp Dewpoint Dewpoint Depression Visibility Wind Speed Wind Dir Waves Ship Positions

OOCL Taipei

Last reported at 2017-Oct-12 00:36 UTC. Time now 2017-Oct-22 12:13 UTC.
Position N 22°49' E 120°02'.
Warning: this ship's position is 10 days out of date.

Length 335 m; draft 12.1 m.

Type: Cargo ship. MMSI: 477067800.

Date/timePositionNaut miles runAvg speedWind from/ knotsBaromVisibWave heightAir tempDewpointWater temp
2017-Oct-12 00:36N 22°49' E 120°02'114.9
2017-Oct-12 00:30N 22°48' E 120°03'612.8
2017-Oct-12 00:00N 22°42' E 120°05'1 3.0
2017-Oct-11 23:30N 22°41' E 120°06'3 7.0
2017-Oct-11 23:00N 22°38' E 120°08'713.1
2017-Oct-11 22:30N 22°33' E 120°12'612.6
2017-Oct-11 22:00N 22°33' E 120°19'1 0.3
2017-Oct-11 17:10N 22°34' E 120°19'0 0.0
2017-Oct-11 00:00N 22°34' E 120°19'3 5.2
2017-Oct-10 23:30N 22°32' E 120°16'2 3.5
2017-Oct-10 23:00N 22°32' E 120°15'2 4.9
2017-Oct-10 22:30N 22°32' E 120°12'714.2
2017-Oct-10 22:00N 22°30' E 120°04'1019.9
2017-Oct-10 21:30N 22°30' E 119°54'320 7.2
2017-Oct-09 01:03N 22°20' E 114°07'0 7.5
2017-Oct-09 01:00N 22°20' E 114°07'1 0.1
2017-Oct-08 14:03N 22°19' E 114°07'0 5.8
2017-Oct-08 14:00N 22°19' E 114°07'13 9.6
2017-Oct-08 12:40N 22°23' E 113°54'2 5.1
2017-Oct-08 12:19N 22°25' E 113°53'2 1.6
2017-Oct-08 11:06N 22°27' E 113°53'0 0.0
2017-Oct-08 10:57N 22°27' E 113°53'0 0.0
2017-Oct-08 07:09N 22°27' E 113°53'0 0.0
2017-Oct-07 22:57N 22°27' E 113°53'0 1.0
2017-Oct-07 22:30N 22°26' E 113°53'3 6.4
2017-Oct-07 22:00N 22°23' E 113°54'2 3.8
2017-Oct-07 21:30N 22°22' E 113°55'330 8.6
2017-Oct-06 07:03N 22°30' E 119°52'0 8.0
2017-Oct-06 07:00N 22°30' E 119°53'4 8.2
2017-Oct-06 06:30N 22°30' E 119°57'510.1
2017-Oct-06 06:00N 22°31' E 120°03'510.2
2017-Oct-06 05:30N 22°32' E 120°08'5 9.0
2017-Oct-06 05:00N 22°33' E 120°13'510.9
2017-Oct-06 04:30N 22°33' E 120°19'1 2.4
2017-Oct-06 04:00N 22°34' E 120°19'0 0.0
2017-Oct-05 19:25N 22°34' E 120°19'0 0.0
2017-Oct-05 09:49N 22°34' E 120°19'0 0.0
2017-Oct-05 09:13N 22°34' E 120°19'0 0.0
2017-Oct-05 08:55N 22°34' E 120°19'1 1.6
2017-Oct-05 08:30N 22°34' E 120°19'3 5.9
2017-Oct-05 08:00N 22°33' E 120°16'2 3.3
2017-Oct-05 07:30N 22°32' E 120°14'2 3.0
2017-Oct-05 07:00N 22°32' E 120°13'2 3.9
2017-Oct-05 06:30N 22°32' E 120°11'1 2.7
2017-Oct-05 06:00N 22°33' E 120°10'0 0.8
2017-Oct-05 05:30N 22°34' E 120°10'0 0.6
2017-Oct-05 05:00N 22°34' E 120°10'0 0.7
2017-Oct-05 04:30N 22°34' E 120°10'1 2.6
2017-Oct-05 04:00N 22°36' E 120°10'3 6.5
2017-Oct-05 03:30N 22°39' E 120°08'3 6.8
2017-Oct-05 03:00N 22°42' E 120°07'612.4
2017-Oct-05 02:30N 22°47' E 120°04'  

Dump ship's entire track history